sensor_id;sensor_type;location;lat;lon;timestamp;P1;durP1;ratioP1;P2;durP2;ratioP2
38226;SDS011;24026;49.446;8.576;2024-01-06T00:00:07;129.23;;;115.28;;
38226;SDS011;24026;49.446;8.576;2024-01-06T00:02:28;129.77;;;115.90;;
38226;SDS011;24026;49.446;8.576;2024-01-06T00:04:48;129.38;;;115.35;;
38226;SDS011;24026;49.446;8.576;2024-01-06T00:07:09;128.00;;;114.22;;
38226;SDS011;24026;49.446;8.576;2024-01-06T00:09:29;125.10;;;111.40;;
38226;SDS011;24026;49.446;8.576;2024-01-06T00:11:49;129.38;;;115.50;;
38226;SDS011;24026;49.446;8.576;2024-01-06T00:14:10;128.15;;;114.38;;
38226;SDS011;24026;49.446;8.576;2024-01-06T00:16:30;127.88;;;114.03;;
38226;SDS011;24026;49.446;8.576;2024-01-06T00:18:51;128.77;;;114.70;;
38226;SDS011;24026;49.446;8.576;2024-01-06T00:21:11;127.57;;;113.85;;
38226;SDS011;24026;49.446;8.576;2024-01-06T00:23:31;128.98;;;115.07;;
38226;SDS011;24026;49.446;8.576;2024-01-06T00:25:52;127.85;;;113.93;;
38226;SDS011;24026;49.446;8.576;2024-01-06T00:28:12;124.80;;;110.90;;
38226;SDS011;24026;49.446;8.576;2024-01-06T00:30:32;125.18;;;111.55;;
38226;SDS011;24026;49.446;8.576;2024-01-06T00:32:53;129.70;;;115.85;;
38226;SDS011;24026;49.446;8.576;2024-01-06T00:35:13;126.63;;;112.78;;
38226;SDS011;24026;49.446;8.576;2024-01-06T00:40:38;125.63;;;112.07;;
38226;SDS011;24026;49.446;8.576;2024-01-06T00:42:58;123.60;;;110.10;;
38226;SDS011;24026;49.446;8.576;2024-01-06T00:45:19;127.22;;;113.43;;
38226;SDS011;24026;49.446;8.576;2024-01-06T00:47:40;125.53;;;111.85;;
38226;SDS011;24026;49.446;8.576;2024-01-06T00:50:00;122.53;;;109.00;;
38226;SDS011;24026;49.446;8.576;2024-01-06T00:52:20;125.75;;;112.07;;
38226;SDS011;24026;49.446;8.576;2024-01-06T00:54:41;125.15;;;111.63;;
38226;SDS011;24026;49.446;8.576;2024-01-06T00:57:01;123.72;;;110.20;;
38226;SDS011;24026;49.446;8.576;2024-01-06T00:59:21;127.65;;;113.90;;
38226;SDS011;24026;49.446;8.576;2024-01-06T01:01:42;126.18;;;112.45;;
38226;SDS011;24026;49.446;8.576;2024-01-06T01:04:02;126.47;;;112.60;;
38226;SDS011;24026;49.446;8.576;2024-01-06T01:06:23;122.30;;;108.72;;
38226;SDS011;24026;49.446;8.576;2024-01-06T01:08:43;124.03;;;110.53;;
38226;SDS011;24026;49.446;8.576;2024-01-06T01:11:03;122.03;;;108.68;;
38226;SDS011;24026;49.446;8.576;2024-01-06T01:13:24;125.28;;;111.72;;
38226;SDS011;24026;49.446;8.576;2024-01-06T01:15:45;125.80;;;112.22;;
38226;SDS011;24026;49.446;8.576;2024-01-06T01:18:05;125.68;;;111.95;;
38226;SDS011;24026;49.446;8.576;2024-01-06T01:20:26;125.03;;;111.35;;
38226;SDS011;24026;49.446;8.576;2024-01-06T01:22:46;119.88;;;106.60;;
38226;SDS011;24026;49.446;8.576;2024-01-06T01:25:07;122.25;;;108.85;;
38226;SDS011;24026;49.446;8.576;2024-01-06T01:27:27;124.18;;;110.78;;
38226;SDS011;24026;49.446;8.576;2024-01-06T01:29:47;121.85;;;108.53;;
38226;SDS011;24026;49.446;8.576;2024-01-06T01:32:10;124.85;;;111.43;;
38226;SDS011;24026;49.446;8.576;2024-01-06T01:34:30;124.72;;;111.15;;
38226;SDS011;24026;49.446;8.576;2024-01-06T01:36:50;121.53;;;107.07;;
38226;SDS011;24026;49.446;8.576;2024-01-06T01:39:11;124.13;;;110.70;;
38226;SDS011;24026;49.446;8.576;2024-01-06T01:41:31;124.90;;;111.38;;
38226;SDS011;24026;49.446;8.576;2024-01-06T01:43:51;120.68;;;107.35;;
38226;SDS011;24026;49.446;8.576;2024-01-06T01:46:18;121.20;;;107.93;;
38226;SDS011;24026;49.446;8.576;2024-01-06T01:48:38;124.32;;;110.88;;
38226;SDS011;24026;49.446;8.576;2024-01-06T01:50:59;123.57;;;110.28;;
38226;SDS011;24026;49.446;8.576;2024-01-06T01:53:19;124.35;;;110.80;;
38226;SDS011;24026;49.446;8.576;2024-01-06T01:55:41;120.32;;;107.10;;
38226;SDS011;24026;49.446;8.576;2024-01-06T01:58:02;123.30;;;109.97;;
38226;SDS011;24026;49.446;8.576;2024-01-06T02:00:23;124.90;;;111.55;;
38226;SDS011;24026;49.446;8.576;2024-01-06T02:02:43;122.70;;;109.22;;
38226;SDS011;24026;49.446;8.576;2024-01-06T02:05:04;119.70;;;106.57;;
38226;SDS011;24026;49.446;8.576;2024-01-06T02:07:24;123.55;;;110.28;;
38226;SDS011;24026;49.446;8.576;2024-01-06T02:09:45;122.80;;;109.40;;
38226;SDS011;24026;49.446;8.576;2024-01-06T02:12:05;124.03;;;110.57;;
38226;SDS011;24026;49.446;8.576;2024-01-06T02:14:26;119.07;;;105.68;;
38226;SDS011;24026;49.446;8.576;2024-01-06T02:16:46;122.50;;;109.35;;
38226;SDS011;24026;49.446;8.576;2024-01-06T02:19:07;122.18;;;108.88;;
38226;SDS011;24026;49.446;8.576;2024-01-06T02:21:30;120.28;;;107.07;;
38226;SDS011;24026;49.446;8.576;2024-01-06T02:23:51;121.95;;;108.75;;
38226;SDS011;24026;49.446;8.576;2024-01-06T02:26:12;118.35;;;105.07;;
38226;SDS011;24026;49.446;8.576;2024-01-06T02:28:34;122.57;;;109.25;;
38226;SDS011;24026;49.446;8.576;2024-01-06T02:30:55;121.05;;;107.97;;
38226;SDS011;24026;49.446;8.576;2024-01-06T02:33:15;121.18;;;108.07;;
38226;SDS011;24026;49.446;8.576;2024-01-06T02:35:35;121.65;;;108.32;;
38226;SDS011;24026;49.446;8.576;2024-01-06T02:37:56;118.45;;;105.38;;
38226;SDS011;24026;49.446;8.576;2024-01-06T02:40:16;121.78;;;108.50;;
38226;SDS011;24026;49.446;8.576;2024-01-06T02:42:37;121.35;;;108.05;;
38226;SDS011;24026;49.446;8.576;2024-01-06T02:44:57;121.85;;;108.70;;
38226;SDS011;24026;49.446;8.576;2024-01-06T02:47:17;120.07;;;107.10;;
38226;SDS011;24026;49.446;8.576;2024-01-06T02:49:38;122.15;;;108.95;;
38226;SDS011;24026;49.446;8.576;2024-01-06T02:51:58;121.63;;;108.40;;
38226;SDS011;24026;49.446;8.576;2024-01-06T02:54:19;120.57;;;107.45;;
38226;SDS011;24026;49.446;8.576;2024-01-06T02:56:39;118.03;;;105.05;;
38226;SDS011;24026;49.446;8.576;2024-01-06T02:58:59;121.68;;;108.43;;
38226;SDS011;24026;49.446;8.576;2024-01-06T03:01:20;121.70;;;108.40;;
38226;SDS011;24026;49.446;8.576;2024-01-06T03:03:40;119.22;;;106.18;;
38226;SDS011;24026;49.446;8.576;2024-01-06T03:06:00;118.50;;;105.63;;
38226;SDS011;24026;49.446;8.576;2024-01-06T03:08:21;120.93;;;107.88;;
38226;SDS011;24026;49.446;8.576;2024-01-06T03:10:42;119.25;;;106.15;;
38226;SDS011;24026;49.446;8.576;2024-01-06T03:13:03;116.65;;;103.60;;
38226;SDS011;24026;49.446;8.576;2024-01-06T03:15:23;121.68;;;108.38;;
38226;SDS011;24026;49.446;8.576;2024-01-06T03:17:44;120.88;;;107.78;;
38226;SDS011;24026;49.446;8.576;2024-01-06T03:20:04;123.13;;;109.85;;
38226;SDS011;24026;49.446;8.576;2024-01-06T03:22:25;121.03;;;107.82;;
38226;SDS011;24026;49.446;8.576;2024-01-06T03:24:45;120.93;;;107.82;;
38226;SDS011;24026;49.446;8.576;2024-01-06T03:27:06;118.90;;;105.88;;
38226;SDS011;24026;49.446;8.576;2024-01-06T03:29:26;121.55;;;108.35;;
38226;SDS011;24026;49.446;8.576;2024-01-06T03:31:46;119.68;;;106.57;;
38226;SDS011;24026;49.446;8.576;2024-01-06T03:34:07;116.70;;;103.57;;
38226;SDS011;24026;49.446;8.576;2024-01-06T03:36:28;119.75;;;106.57;;
38226;SDS011;24026;49.446;8.576;2024-01-06T03:38:48;117.40;;;104.22;;
38226;SDS011;24026;49.446;8.576;2024-01-06T03:41:09;121.18;;;107.90;;
38226;SDS011;24026;49.446;8.576;2024-01-06T03:43:29;120.47;;;107.45;;
38226;SDS011;24026;49.446;8.576;2024-01-06T03:45:50;120.10;;;107.10;;
38226;SDS011;24026;49.446;8.576;2024-01-06T03:48:10;116.82;;;103.85;;
38226;SDS011;24026;49.446;8.576;2024-01-06T03:50:31;119.68;;;106.65;;
38226;SDS011;24026;49.446;8.576;2024-01-06T03:52:51;119.88;;;106.88;;
38226;SDS011;24026;49.446;8.576;2024-01-06T03:55:12;117.45;;;104.68;;
38226;SDS011;24026;49.446;8.576;2024-01-06T03:57:32;119.82;;;106.78;;
38226;SDS011;24026;49.446;8.576;2024-01-06T03:59:53;119.88;;;106.93;;
38226;SDS011;24026;49.446;8.576;2024-01-06T04:02:13;118.72;;;103.07;;
38226;SDS011;24026;49.446;8.576;2024-01-06T04:04:33;120.03;;;107.05;;
38226;SDS011;24026;49.446;8.576;2024-01-06T04:06:54;117.10;;;103.82;;
38226;SDS011;24026;49.446;8.576;2024-01-06T04:09:14;118.93;;;106.05;;
38226;SDS011;24026;49.446;8.576;2024-01-06T04:11:34;119.97;;;106.95;;
38226;SDS011;24026;49.446;8.576;2024-01-06T04:13:55;119.32;;;106.28;;
38226;SDS011;24026;49.446;8.576;2024-01-06T04:16:15;117.03;;;104.20;;
38226;SDS011;24026;49.446;8.576;2024-01-06T04:18:36;119.18;;;106.28;;
38226;SDS011;24026;49.446;8.576;2024-01-06T04:20:56;119.50;;;106.50;;
38226;SDS011;24026;49.446;8.576;2024-01-06T04:23:16;118.53;;;105.55;;
38226;SDS011;24026;49.446;8.576;2024-01-06T04:25:37;116.03;;;103.20;;
38226;SDS011;24026;49.446;8.576;2024-01-06T04:27:57;120.35;;;107.40;;
38226;SDS011;24026;49.446;8.576;2024-01-06T04:30:17;118.65;;;105.85;;
38226;SDS011;24026;49.446;8.576;2024-01-06T04:32:38;117.72;;;104.93;;
38226;SDS011;24026;49.446;8.576;2024-01-06T04:34:58;117.95;;;105.13;;
38226;SDS011;24026;49.446;8.576;2024-01-06T04:37:19;115.55;;;102.85;;
38226;SDS011;24026;49.446;8.576;2024-01-06T04:39:39;118.25;;;105.47;;
38226;SDS011;24026;49.446;8.576;2024-01-06T04:42:00;118.47;;;105.50;;
38226;SDS011;24026;49.446;8.576;2024-01-06T04:44:20;117.85;;;105.10;;
38226;SDS011;24026;49.446;8.576;2024-01-06T04:46:41;118.10;;;105.20;;
38226;SDS011;24026;49.446;8.576;2024-01-06T04:49:02;118.60;;;105.68;;
38226;SDS011;24026;49.446;8.576;2024-01-06T04:51:22;119.78;;;106.80;;
38226;SDS011;24026;49.446;8.576;2024-01-06T04:53:43;115.03;;;102.30;;
38226;SDS011;24026;49.446;8.576;2024-01-06T04:56:03;116.85;;;103.57;;
38226;SDS011;24026;49.446;8.576;2024-01-06T04:58:24;118.65;;;105.85;;
38226;SDS011;24026;49.446;8.576;2024-01-06T05:00:44;116.72;;;103.82;;
38226;SDS011;24026;49.446;8.576;2024-01-06T05:03:04;119.63;;;106.63;;
38226;SDS011;24026;49.446;8.576;2024-01-06T05:05:26;118.32;;;105.38;;
38226;SDS011;24026;49.446;8.576;2024-01-06T05:07:47;119.13;;;106.13;;
38226;SDS011;24026;49.446;8.576;2024-01-06T05:10:07;118.72;;;105.95;;
38226;SDS011;24026;49.446;8.576;2024-01-06T05:12:28;119.03;;;106.15;;
38226;SDS011;24026;49.446;8.576;2024-01-06T05:14:48;119.05;;;105.93;;
38226;SDS011;24026;49.446;8.576;2024-01-06T05:17:09;118.60;;;105.60;;
38226;SDS011;24026;49.446;8.576;2024-01-06T05:19:31;115.38;;;101.13;;
38226;SDS011;24026;49.446;8.576;2024-01-06T05:21:51;113.40;;;100.50;;
38226;SDS011;24026;49.446;8.576;2024-01-06T05:24:12;119.40;;;106.55;;
38226;SDS011;24026;49.446;8.576;2024-01-06T05:26:35;117.93;;;105.10;;
38226;SDS011;24026;49.446;8.576;2024-01-06T05:28:56;119.03;;;105.93;;
38226;SDS011;24026;49.446;8.576;2024-01-06T05:31:17;115.05;;;101.68;;
38226;SDS011;24026;49.446;8.576;2024-01-06T05:33:37;118.50;;;105.72;;
38226;SDS011;24026;49.446;8.576;2024-01-06T05:35:57;117.90;;;105.00;;
38226;SDS011;24026;49.446;8.576;2024-01-06T05:38:18;113.72;;;101.22;;
38226;SDS011;24026;49.446;8.576;2024-01-06T05:40:38;117.40;;;104.55;;
38226;SDS011;24026;49.446;8.576;2024-01-06T05:42:58;117.60;;;104.85;;
38226;SDS011;24026;49.446;8.576;2024-01-06T05:45:19;118.63;;;105.72;;
38226;SDS011;24026;49.446;8.576;2024-01-06T05:47:39;117.18;;;104.43;;
38226;SDS011;24026;49.446;8.576;2024-01-06T05:49:59;117.10;;;104.38;;
38226;SDS011;24026;49.446;8.576;2024-01-06T05:52:20;117.25;;;104.47;;
38226;SDS011;24026;49.446;8.576;2024-01-06T05:54:41;116.25;;;103.47;;
38226;SDS011;24026;49.446;8.576;2024-01-06T05:57:04;117.90;;;105.00;;
38226;SDS011;24026;49.446;8.576;2024-01-06T05:59:25;117.70;;;105.03;;
38226;SDS011;24026;49.446;8.576;2024-01-06T06:01:46;114.63;;;101.95;;
38226;SDS011;24026;49.446;8.576;2024-01-06T06:04:06;117.60;;;104.90;;
38226;SDS011;24026;49.446;8.576;2024-01-06T06:06:26;117.20;;;104.43;;
38226;SDS011;24026;49.446;8.576;2024-01-06T06:08:47;116.15;;;103.47;;
38226;SDS011;24026;49.446;8.576;2024-01-06T06:11:08;114.15;;;101.47;;
38226;SDS011;24026;49.446;8.576;2024-01-06T06:13:31;117.07;;;104.38;;
38226;SDS011;24026;49.446;8.576;2024-01-06T06:15:52;116.75;;;103.95;;
38226;SDS011;24026;49.446;8.576;2024-01-06T06:18:12;115.50;;;100.80;;
38226;SDS011;24026;49.446;8.576;2024-01-06T06:20:33;119.00;;;106.20;;
38226;SDS011;24026;49.446;8.576;2024-01-06T06:22:53;113.90;;;100.47;;
38226;SDS011;24026;49.446;8.576;2024-01-06T06:25:14;118.93;;;105.97;;
38226;SDS011;24026;49.446;8.576;2024-01-06T06:27:34;117.85;;;105.13;;
38226;SDS011;24026;49.446;8.576;2024-01-06T06:29:55;117.85;;;104.95;;
38226;SDS011;24026;49.446;8.576;2024-01-06T06:32:16;117.78;;;104.97;;
38226;SDS011;24026;49.446;8.576;2024-01-06T06:34:36;115.13;;;102.53;;
38226;SDS011;24026;49.446;8.576;2024-01-06T06:36:57;116.72;;;104.05;;
38226;SDS011;24026;49.446;8.576;2024-01-06T06:39:18;115.05;;;102.45;;
38226;SDS011;24026;49.446;8.576;2024-01-06T06:41:39;117.30;;;104.55;;
38226;SDS011;24026;49.446;8.576;2024-01-06T06:43:59;113.72;;;101.13;;
38226;SDS011;24026;49.446;8.576;2024-01-06T06:46:20;116.00;;;103.38;;
38226;SDS011;24026;49.446;8.576;2024-01-06T06:48:40;117.95;;;105.15;;
38226;SDS011;24026;49.446;8.576;2024-01-06T06:51:00;115.18;;;102.50;;
38226;SDS011;24026;49.446;8.576;2024-01-06T06:53:21;115.15;;;102.43;;
38226;SDS011;24026;49.446;8.576;2024-01-06T06:55:41;114.70;;;101.95;;
38226;SDS011;24026;49.446;8.576;2024-01-06T06:58:01;118.03;;;105.25;;
38226;SDS011;24026;49.446;8.576;2024-01-06T07:00:22;115.65;;;102.90;;
38226;SDS011;24026;49.446;8.576;2024-01-06T07:02:42;116.57;;;103.72;;
38226;SDS011;24026;49.446;8.576;2024-01-06T07:05:03;116.45;;;103.80;;
38226;SDS011;24026;49.446;8.576;2024-01-06T07:07:26;116.45;;;103.78;;
38226;SDS011;24026;49.446;8.576;2024-01-06T07:09:47;116.38;;;103.78;;
38226;SDS011;24026;49.446;8.576;2024-01-06T07:12:07;115.57;;;102.95;;
38226;SDS011;24026;49.446;8.576;2024-01-06T07:14:28;116.15;;;103.50;;
38226;SDS011;24026;49.446;8.576;2024-01-06T07:16:48;116.35;;;103.53;;
38226;SDS011;24026;49.446;8.576;2024-01-06T07:19:08;115.47;;;102.80;;
38226;SDS011;24026;49.446;8.576;2024-01-06T07:21:29;116.72;;;103.97;;
38226;SDS011;24026;49.446;8.576;2024-01-06T07:23:49;115.75;;;103.03;;
38226;SDS011;24026;49.446;8.576;2024-01-06T07:26:09;118.05;;;105.18;;
38226;SDS011;24026;49.446;8.576;2024-01-06T07:28:30;116.35;;;103.38;;
38226;SDS011;24026;49.446;8.576;2024-01-06T07:30:50;116.50;;;103.78;;
38226;SDS011;24026;49.446;8.576;2024-01-06T07:33:11;116.72;;;103.05;;
38226;SDS011;24026;49.446;8.576;2024-01-06T07:35:31;116.90;;;104.15;;
38226;SDS011;24026;49.446;8.576;2024-01-06T07:37:51;116.57;;;103.65;;
38226;SDS011;24026;49.446;8.576;2024-01-06T07:40:13;116.13;;;103.47;;
38226;SDS011;24026;49.446;8.576;2024-01-06T07:42:36;117.40;;;104.60;;
38226;SDS011;24026;49.446;8.576;2024-01-06T07:44:56;115.93;;;103.32;;
38226;SDS011;24026;49.446;8.576;2024-01-06T07:47:17;114.18;;;101.60;;
38226;SDS011;24026;49.446;8.576;2024-01-06T07:49:37;116.10;;;103.50;;
38226;SDS011;24026;49.446;8.576;2024-01-06T07:51:57;115.47;;;102.95;;
38226;SDS011;24026;49.446;8.576;2024-01-06T07:54:18;116.35;;;103.57;;
38226;SDS011;24026;49.446;8.576;2024-01-06T07:56:38;116.18;;;103.53;;
38226;SDS011;24026;49.446;8.576;2024-01-06T07:58:59;116.15;;;103.40;;
38226;SDS011;24026;49.446;8.576;2024-01-06T08:01:19;116.53;;;103.82;;
38226;SDS011;24026;49.446;8.576;2024-01-06T08:03:40;113.75;;;101.25;;
38226;SDS011;24026;49.446;8.576;2024-01-06T08:06:00;113.32;;;99.28;;
38226;SDS011;24026;49.446;8.576;2024-01-06T08:08:21;119.50;;;106.60;;
38226;SDS011;24026;49.446;8.576;2024-01-06T08:10:41;116.88;;;104.18;;
38226;SDS011;24026;49.446;8.576;2024-01-06T08:13:02;113.90;;;98.97;;
38226;SDS011;24026;49.446;8.576;2024-01-06T08:15:23;115.72;;;103.07;;
38226;SDS011;24026;49.446;8.576;2024-01-06T08:17:44;116.70;;;103.93;;
38226;SDS011;24026;49.446;8.576;2024-01-06T08:20:04;116.00;;;103.40;;
38226;SDS011;24026;49.446;8.576;2024-01-06T08:22:26;116.88;;;104.13;;
38226;SDS011;24026;49.446;8.576;2024-01-06T08:24:46;115.93;;;103.28;;
38226;SDS011;24026;49.446;8.576;2024-01-06T08:27:07;115.60;;;103.07;;
38226;SDS011;24026;49.446;8.576;2024-01-06T08:29:27;116.00;;;103.32;;
38226;SDS011;24026;49.446;8.576;2024-01-06T08:31:48;117.50;;;104.70;;
38226;SDS011;24026;49.446;8.576;2024-01-06T08:34:11;116.03;;;103.07;;
38226;SDS011;24026;49.446;8.576;2024-01-06T08:36:32;117.32;;;104.55;;
38226;SDS011;24026;49.446;8.576;2024-01-06T08:38:52;114.25;;;101.65;;
38226;SDS011;24026;49.446;8.576;2024-01-06T08:41:13;116.28;;;103.70;;
38226;SDS011;24026;49.446;8.576;2024-01-06T08:43:33;116.22;;;103.60;;
38226;SDS011;24026;49.446;8.576;2024-01-06T08:45:53;115.95;;;103.25;;
38226;SDS011;24026;49.446;8.576;2024-01-06T08:48:14;114.75;;;102.20;;
38226;SDS011;24026;49.446;8.576;2024-01-06T08:50:35;117.00;;;104.38;;
38226;SDS011;24026;49.446;8.576;2024-01-06T08:52:55;115.63;;;102.95;;
38226;SDS011;24026;49.446;8.576;2024-01-06T08:55:15;116.65;;;104.05;;
38226;SDS011;24026;49.446;8.576;2024-01-06T08:57:36;116.88;;;104.07;;
38226;SDS011;24026;49.446;8.576;2024-01-06T08:59:57;116.57;;;103.97;;
38226;SDS011;24026;49.446;8.576;2024-01-06T09:02:17;115.97;;;103.35;;
38226;SDS011;24026;49.446;8.576;2024-01-06T09:04:37;112.53;;;99.03;;
38226;SDS011;24026;49.446;8.576;2024-01-06T09:06:58;114.60;;;102.05;;
38226;SDS011;24026;49.446;8.576;2024-01-06T09:09:18;117.82;;;104.95;;
38226;SDS011;24026;49.446;8.576;2024-01-06T09:11:39;117.50;;;104.88;;
38226;SDS011;24026;49.446;8.576;2024-01-06T09:13:59;118.65;;;105.70;;
38226;SDS011;24026;49.446;8.576;2024-01-06T09:16:20;116.35;;;103.75;;
38226;SDS011;24026;49.446;8.576;2024-01-06T09:18:41;115.40;;;102.85;;
38226;SDS011;24026;49.446;8.576;2024-01-06T09:21:01;113.50;;;100.65;;
38226;SDS011;24026;49.446;8.576;2024-01-06T09:23:23;117.38;;;104.60;;
38226;SDS011;24026;49.446;8.576;2024-01-06T09:25:43;116.57;;;103.90;;
38226;SDS011;24026;49.446;8.576;2024-01-06T09:28:04;114.35;;;101.80;;
38226;SDS011;24026;49.446;8.576;2024-01-06T09:30:24;118.22;;;105.45;;
38226;SDS011;24026;49.446;8.576;2024-01-06T09:32:45;116.80;;;104.10;;
38226;SDS011;24026;49.446;8.576;2024-01-06T09:35:06;114.15;;;101.72;;
38226;SDS011;24026;49.446;8.576;2024-01-06T09:37:27;113.57;;;100.22;;
38226;SDS011;24026;49.446;8.576;2024-01-06T09:39:47;116.47;;;103.88;;
38226;SDS011;24026;49.446;8.576;2024-01-06T09:42:07;116.32;;;103.78;;
38226;SDS011;24026;49.446;8.576;2024-01-06T09:44:28;116.47;;;103.93;;
38226;SDS011;24026;49.446;8.576;2024-01-06T09:46:49;115.85;;;103.15;;
38226;SDS011;24026;49.446;8.576;2024-01-06T09:49:10;117.57;;;104.78;;
38226;SDS011;24026;49.446;8.576;2024-01-06T09:51:30;118.47;;;105.47;;
38226;SDS011;24026;49.446;8.576;2024-01-06T09:53:57;116.70;;;104.00;;
38226;SDS011;24026;49.446;8.576;2024-01-06T09:56:19;112.97;;;100.43;;
38226;SDS011;24026;49.446;8.576;2024-01-06T09:58:39;116.65;;;104.07;;
38226;SDS011;24026;49.446;8.576;2024-01-06T10:01:01;117.57;;;104.95;;
38226;SDS011;24026;49.446;8.576;2024-01-06T10:03:22;116.63;;;104.00;;
38226;SDS011;24026;49.446;8.576;2024-01-06T10:05:42;117.20;;;104.45;;
38226;SDS011;24026;49.446;8.576;2024-01-06T10:08:02;116.57;;;103.88;;
38226;SDS011;24026;49.446;8.576;2024-01-06T10:10:24;117.50;;;104.90;;
38226;SDS011;24026;49.446;8.576;2024-01-06T10:12:44;116.90;;;104.22;;
38226;SDS011;24026;49.446;8.576;2024-01-06T10:15:05;113.57;;;101.15;;
38226;SDS011;24026;49.446;8.576;2024-01-06T10:17:26;117.60;;;104.90;;
38226;SDS011;24026;49.446;8.576;2024-01-06T10:19:48;118.22;;;105.43;;
38226;SDS011;24026;49.446;8.576;2024-01-06T10:22:09;117.15;;;104.53;;
38226;SDS011;24026;49.446;8.576;2024-01-06T10:24:30;118.88;;;106.15;;
38226;SDS011;24026;49.446;8.576;2024-01-06T10:26:51;117.32;;;104.60;;
38226;SDS011;24026;49.446;8.576;2024-01-06T10:29:15;118.22;;;105.32;;
38226;SDS011;24026;49.446;8.576;2024-01-06T10:31:35;114.18;;;101.20;;
38226;SDS011;24026;49.446;8.576;2024-01-06T10:33:56;115.68;;;103.13;;
38226;SDS011;24026;49.446;8.576;2024-01-06T10:36:16;117.75;;;105.18;;
38226;SDS011;24026;49.446;8.576;2024-01-06T10:38:37;122.40;;;109.40;;
38226;SDS011;24026;49.446;8.576;2024-01-06T10:40:58;120.20;;;107.10;;
38226;SDS011;24026;49.446;8.576;2024-01-06T10:43:19;123.43;;;110.15;;
38226;SDS011;24026;49.446;8.576;2024-01-06T10:45:41;118.63;;;105.85;;
38226;SDS011;24026;49.446;8.576;2024-01-06T10:48:03;122.05;;;109.18;;
38226;SDS011;24026;49.446;8.576;2024-01-06T10:50:25;120.53;;;106.88;;
38226;SDS011;24026;49.446;8.576;2024-01-06T10:52:48;123.63;;;110.43;;
38226;SDS011;24026;49.446;8.576;2024-01-06T10:55:08;123.03;;;109.82;;
38226;SDS011;24026;49.446;8.576;2024-01-06T10:57:29;122.30;;;109.28;;
38226;SDS011;24026;49.446;8.576;2024-01-06T10:59:52;120.68;;;107.78;;
38226;SDS011;24026;49.446;8.576;2024-01-06T11:02:12;122.60;;;109.60;;
38226;SDS011;24026;49.446;8.576;2024-01-06T11:04:36;122.30;;;109.20;;
38226;SDS011;24026;49.446;8.576;2024-01-06T11:06:57;120.03;;;107.13;;
38226;SDS011;24026;49.446;8.576;2024-01-06T11:09:24;118.80;;;106.05;;
38226;SDS011;24026;49.446;8.576;2024-01-06T11:11:51;123.00;;;110.10;;
38226;SDS011;24026;49.446;8.576;2024-01-06T11:14:19;122.43;;;109.47;;
38226;SDS011;24026;49.446;8.576;2024-01-06T11:16:42;122.88;;;109.60;;
38226;SDS011;24026;49.446;8.576;2024-01-06T11:19:03;122.63;;;109.75;;
38226;SDS011;24026;49.446;8.576;2024-01-06T11:21:55;123.70;;;110.70;;
38226;SDS011;24026;49.446;8.576;2024-01-06T11:24:18;122.18;;;109.10;;
38226;SDS011;24026;49.446;8.576;2024-01-06T11:26:44;122.93;;;109.90;;
38226;SDS011;24026;49.446;8.576;2024-01-06T11:29:07;125.07;;;112.05;;
38226;SDS011;24026;49.446;8.576;2024-01-06T11:31:30;122.40;;;109.43;;
38226;SDS011;24026;49.446;8.576;2024-01-06T11:33:51;122.78;;;109.70;;
38226;SDS011;24026;49.446;8.576;2024-01-06T11:36:14;122.32;;;109.38;;
38226;SDS011;24026;49.446;8.576;2024-01-06T11:38:38;122.25;;;109.35;;
38226;SDS011;24026;49.446;8.576;2024-01-06T11:40:59;123.35;;;110.25;;
38226;SDS011;24026;49.446;8.576;2024-01-06T11:43:19;121.20;;;108.43;;
38226;SDS011;24026;49.446;8.576;2024-01-06T11:45:47;118.93;;;106.18;;
38226;SDS011;24026;49.446;8.576;2024-01-06T11:48:08;123.93;;;110.78;;
38226;SDS011;24026;49.446;8.576;2024-01-06T11:50:32;122.45;;;109.63;;
38226;SDS011;24026;49.446;8.576;2024-01-06T11:52:55;118.18;;;105.20;;
38226;SDS011;24026;49.446;8.576;2024-01-06T11:55:15;121.05;;;108.18;;
38226;SDS011;24026;49.446;8.576;2024-01-06T11:57:38;122.07;;;109.20;;
38226;SDS011;24026;49.446;8.576;2024-01-06T11:59:58;123.57;;;110.70;;
38226;SDS011;24026;49.446;8.576;2024-01-06T12:02:19;123.03;;;110.03;;
38226;SDS011;24026;49.446;8.576;2024-01-06T12:04:42;123.72;;;110.65;;
38226;SDS011;24026;49.446;8.576;2024-01-06T12:07:09;122.22;;;109.40;;
38226;SDS011;24026;49.446;8.576;2024-01-06T12:09:33;123.38;;;110.38;;
38226;SDS011;24026;49.446;8.576;2024-01-06T12:12:03;121.35;;;108.53;;
38226;SDS011;24026;49.446;8.576;2024-01-06T12:14:25;120.93;;;108.18;;
38226;SDS011;24026;49.446;8.576;2024-01-06T12:16:45;122.65;;;109.82;;
38226;SDS011;24026;49.446;8.576;2024-01-06T12:19:06;120.05;;;107.25;;
38226;SDS011;24026;49.446;8.576;2024-01-06T12:21:27;124.82;;;111.82;;
38226;SDS011;24026;49.446;8.576;2024-01-06T12:23:48;124.13;;;111.22;;
38226;SDS011;24026;49.446;8.576;2024-01-06T12:26:09;122.32;;;109.53;;
38226;SDS011;24026;49.446;8.576;2024-01-06T12:28:29;124.65;;;111.65;;
38226;SDS011;24026;49.446;8.576;2024-01-06T12:30:50;120.38;;;107.47;;
38226;SDS011;24026;49.446;8.576;2024-01-06T12:33:10;122.88;;;109.95;;
38226;SDS011;24026;49.446;8.576;2024-01-06T12:35:31;125.18;;;112.15;;
38226;SDS011;24026;49.446;8.576;2024-01-06T12:37:51;124.40;;;111.38;;
38226;SDS011;24026;49.446;8.576;2024-01-06T12:40:12;123.05;;;110.25;;
38226;SDS011;24026;49.446;8.576;2024-01-06T12:42:33;124.40;;;111.45;;
38226;SDS011;24026;49.446;8.576;2024-01-06T12:44:53;120.00;;;107.25;;
38226;SDS011;24026;49.446;8.576;2024-01-06T12:47:14;123.32;;;110.43;;
38226;SDS011;24026;49.446;8.576;2024-01-06T12:49:35;124.32;;;111.28;;
38226;SDS011;24026;49.446;8.576;2024-01-06T12:51:56;121.75;;;108.88;;
38226;SDS011;24026;49.446;8.576;2024-01-06T12:54:16;124.03;;;111.03;;
38226;SDS011;24026;49.446;8.576;2024-01-06T12:56:37;124.55;;;111.55;;
38226;SDS011;24026;49.446;8.576;2024-01-06T12:58:57;123.57;;;110.60;;
38226;SDS011;24026;49.446;8.576;2024-01-06T13:01:18;124.25;;;111.15;;
38226;SDS011;24026;49.446;8.576;2024-01-06T13:03:38;123.45;;;110.57;;
38226;SDS011;24026;49.446;8.576;2024-01-06T13:05:59;120.53;;;107.75;;
38226;SDS011;24026;49.446;8.576;2024-01-06T13:08:20;120.18;;;107.43;;
38226;SDS011;24026;49.446;8.576;2024-01-06T13:10:41;124.38;;;111.35;;
38226;SDS011;24026;49.446;8.576;2024-01-06T13:13:02;123.38;;;110.43;;
38226;SDS011;24026;49.446;8.576;2024-01-06T13:15:22;120.70;;;107.97;;
38226;SDS011;24026;49.446;8.576;2024-01-06T13:17:43;120.43;;;107.65;;
38226;SDS011;24026;49.446;8.576;2024-01-06T13:20:04;125.32;;;112.30;;
38226;SDS011;24026;49.446;8.576;2024-01-06T13:22:25;125.43;;;112.35;;